createdAt,value
2017-09-02T00:02:05.539Z,79.50
2017-09-02T00:04:33.908Z,79.50
2017-09-02T00:07:01.519Z,79.60
2017-09-02T00:09:29.028Z,79.90
2017-09-02T00:11:56.583Z,79.80
2017-09-02T00:14:24.369Z,79.60
2017-09-02T00:16:52.588Z,79.70
2017-09-02T00:19:20.199Z,79.50
2017-09-02T00:21:47.696Z,79.40
2017-09-02T00:26:48.303Z,79.00
2017-09-02T00:29:15.853Z,79.10
2017-09-02T00:31:43.348Z,78.80
2017-09-02T00:34:10.852Z,79.40
2017-09-02T00:36:38.559Z,79.50
2017-09-02T00:39:06.308Z,79.30
2017-09-02T00:41:33.840Z,79.20
2017-09-02T00:44:01.507Z,79.10
2017-09-02T00:46:29.294Z,79.10
2017-09-02T00:48:57.043Z,79.40
2017-09-02T00:51:24.567Z,80.00
2017-09-02T00:53:52.142Z,80.00
2017-09-02T00:56:19.906Z,80.50
2017-09-02T00:58:47.468Z,81.00
2017-09-02T01:01:15.275Z,81.20
2017-09-02T01:03:42.768Z,81.30
2017-09-02T01:06:10.273Z,81.20
2017-09-02T01:08:37.768Z,81.70
2017-09-02T01:11:05.322Z,81.70
2017-09-02T01:13:32.835Z,81.20
2017-09-02T01:16:00.992Z,81.70
2017-09-02T01:18:28.687Z,81.60
2017-09-02T01:20:56.180Z,81.80
2017-09-02T01:23:24.507Z,81.70
2017-09-02T01:25:51.995Z,82.20
2017-09-02T01:28:19.605Z,81.30
2017-09-02T01:30:47.096Z,82.00
2017-09-02T01:33:14.604Z,81.10
2017-09-02T01:35:42.128Z,81.50
2017-09-02T01:38:09.887Z,81.50
2017-09-02T01:40:37.380Z,81.20
2017-09-02T01:43:05.107Z,80.80
2017-09-02T01:45:32.724Z,80.60
2017-09-02T01:48:00.280Z,80.70
2017-09-02T01:50:27.792Z,80.80
2017-09-02T01:52:55.280Z,80.80
2017-09-02T01:55:22.792Z,81.40
2017-09-02T01:57:50.618Z,82.00
2017-09-02T02:00:18.112Z,81.70
2017-09-02T02:02:45.613Z,82.00
2017-09-02T02:05:13.122Z,82.10
2017-09-02T02:07:40.620Z,82.50
2017-09-02T02:10:08.134Z,81.60
2017-09-02T02:12:35.891Z,82.10
2017-09-02T02:15:03.398Z,82.50
2017-09-02T02:17:31.086Z,82.80
2017-09-02T02:19:58.595Z,82.70
2017-09-02T02:22:26.112Z,82.50
2017-09-02T02:24:53.800Z,82.50
2017-09-02T02:27:21.295Z,82.30
2017-09-02T02:29:48.809Z,82.10
2017-09-02T02:32:16.425Z,81.60
2017-09-02T02:34:43.928Z,81.40
2017-09-02T02:37:11.431Z,81.70
2017-09-02T02:39:38.956Z,81.20
2017-09-02T02:42:06.461Z,81.90
2017-09-02T02:44:34.031Z,81.80
2017-09-02T02:47:01.550Z,82.00
2017-09-02T02:49:29.045Z,82.20
2017-09-02T02:51:56.731Z,82.10
2017-09-02T02:54:24.253Z,82.00
2017-09-02T02:56:52.410Z,81.80
2017-09-02T02:59:19.928Z,81.70
2017-09-02T03:01:47.436Z,82.00
2017-09-02T03:04:14.932Z,82.00
2017-09-02T03:06:42.640Z,82.10
2017-09-02T03:09:10.135Z,81.90
2017-09-02T03:11:37.655Z,81.80
2017-09-02T03:14:05.155Z,82.00
2017-09-02T03:16:32.831Z,82.30
2017-09-02T03:19:00.777Z,82.00
2017-09-02T03:21:28.344Z,82.20
2017-09-02T03:23:55.867Z,82.30
2017-09-02T03:26:23.462Z,82.30
2017-09-02T03:28:51.035Z,82.40
2017-09-02T03:31:18.540Z,82.50
2017-09-02T03:33:46.224Z,82.70
2017-09-02T03:36:13.732Z,82.60
2017-09-02T03:38:41.241Z,82.20
2017-09-02T03:41:08.933Z,82.10
2017-09-02T03:43:36.432Z,82.80
2017-09-02T03:46:04.307Z,83.00
2017-09-02T03:48:32.612Z,82.90
2017-09-02T03:51:00.127Z,82.90
2017-09-02T03:53:27.770Z,82.80
2017-09-02T03:55:55.544Z,82.60
2017-09-02T03:58:23.287Z,83.50
2017-09-02T04:00:51.050Z,83.20
2017-09-02T04:03:18.823Z,83.10
2017-09-02T04:05:46.328Z,83.10
2017-09-02T04:08:13.829Z,82.80
2017-09-02T04:10:41.476Z,82.30
2017-09-02T04:13:09.240Z,82.80
2017-09-02T04:15:36.751Z,83.00
2017-09-02T04:18:04.470Z,82.90
2017-09-02T04:20:32.003Z,82.90
2017-09-02T04:22:59.515Z,82.90
2017-09-02T04:25:27.130Z,83.20
2017-09-02T04:27:54.780Z,83.00
2017-09-02T04:30:22.542Z,83.50
2017-09-02T04:32:50.024Z,83.70
2017-09-02T04:35:17.532Z,84.40
2017-09-02T04:37:45.348Z,84.10
2017-09-02T04:40:13.109Z,83.80
2017-09-02T04:42:40.611Z,84.00
2017-09-02T04:45:08.204Z,84.30
2017-09-02T04:47:35.802Z,84.30
2017-09-02T04:50:03.571Z,83.90
2017-09-02T04:52:31.307Z,84.00
2017-09-02T04:54:58.816Z,83.70
2017-09-02T04:57:26.342Z,84.10
2017-09-02T04:59:53.991Z,84.20
2017-09-02T05:02:21.627Z,83.80
2017-09-02T05:04:49.204Z,83.60
2017-09-02T05:07:17.583Z,84.70
2017-09-02T05:09:45.225Z,83.90
2017-09-02T05:12:12.778Z,83.70
2017-09-02T05:14:40.583Z,83.80
2017-09-02T05:17:08.521Z,83.90
2017-09-02T05:19:36.008Z,84.10
2017-09-02T05:22:03.571Z,83.70
2017-09-02T05:24:31.075Z,83.90
2017-09-02T05:26:58.755Z,83.90
2017-09-02T05:29:26.279Z,84.10
2017-09-02T05:31:54.014Z,83.40
2017-09-02T05:34:21.756Z,83.60
2017-09-02T05:36:49.252Z,83.60
2017-09-02T05:39:16.993Z,83.90
2017-09-02T05:41:44.490Z,83.70
2017-09-02T05:44:12.019Z,83.60
2017-09-02T05:46:39.534Z,83.30
2017-09-02T05:49:07.045Z,83.30
2017-09-02T05:51:34.564Z,83.60
2017-09-02T05:54:02.502Z,83.40
2017-09-02T05:56:30.277Z,83.30
2017-09-02T05:58:57.775Z,83.00
2017-09-02T06:01:25.498Z,83.30
2017-09-02T06:03:53.008Z,83.30
2017-09-02T06:06:20.532Z,83.40
2017-09-02T06:08:48.073Z,83.30
2017-09-02T06:11:15.592Z,83.10
2017-09-02T06:13:43.963Z,83.50
2017-09-02T06:16:11.580Z,82.80
2017-09-02T06:18:39.352Z,83.40
2017-09-02T06:21:06.884Z,84.60
2017-09-02T06:23:34.572Z,83.50
2017-09-02T06:26:02.103Z,83.30
2017-09-02T06:28:29.716Z,83.50
2017-09-02T06:30:57.221Z,84.00
2017-09-02T06:33:24.723Z,84.40
2017-09-02T06:35:52.232Z,84.00
2017-09-02T06:38:19.893Z,84.00
2017-09-02T06:40:47.400Z,84.10
2017-09-02T06:43:14.917Z,83.90
2017-09-02T06:45:42.635Z,83.30
2017-09-02T06:48:10.127Z,83.40
2017-09-02T06:50:38.092Z,83.50
2017-09-02T06:53:05.896Z,83.20
2017-09-02T06:55:33.411Z,83.20
2017-09-02T06:58:01.132Z,82.70
2017-09-02T07:00:28.650Z,82.40
2017-09-02T07:02:56.515Z,82.00
2017-09-02T07:05:24.083Z,82.50
2017-09-02T07:07:52.203Z,82.30
2017-09-02T07:10:19.950Z,82.40
2017-09-02T07:12:47.465Z,82.20
2017-09-02T07:15:15.187Z,82.00
2017-09-02T07:17:42.911Z,82.00
2017-09-02T07:20:10.675Z,81.80
2017-09-02T07:22:38.194Z,81.60
2017-09-02T07:25:05.895Z,81.60
2017-09-02T07:27:33.659Z,81.30
2017-09-02T07:30:01.187Z,81.40
2017-09-02T07:32:28.882Z,81.80
2017-09-02T07:34:56.644Z,81.70
2017-09-02T07:37:24.407Z,81.70
2017-09-02T07:39:52.172Z,81.70
2017-09-02T07:42:19.955Z,82.30
2017-09-02T07:44:47.625Z,82.50
2017-09-02T07:47:15.143Z,82.40
2017-09-02T07:49:42.920Z,81.90
2017-09-02T07:52:10.696Z,81.60
2017-09-02T07:54:38.192Z,81.90
2017-09-02T07:57:06.002Z,81.80
2017-09-02T07:59:33.504Z,81.70
2017-09-02T08:02:01.095Z,81.80
2017-09-02T08:04:28.597Z,81.60
2017-09-02T08:06:56.218Z,81.40
2017-09-02T08:09:23.723Z,81.30
2017-09-02T08:11:51.232Z,81.20
2017-09-02T08:14:18.732Z,80.80
2017-09-02T08:16:46.515Z,80.50
2017-09-02T08:19:14.021Z,80.50
2017-09-02T08:21:41.673Z,80.30
2017-09-02T08:24:09.192Z,80.30
2017-09-02T08:26:36.804Z,80.10
2017-09-02T08:29:04.371Z,79.80
2017-09-02T08:31:31.867Z,79.90
2017-09-02T08:33:59.613Z,79.70
2017-09-02T08:36:27.355Z,79.60
2017-09-02T08:38:54.888Z,79.40
2017-09-02T08:41:22.576Z,79.00
2017-09-02T08:43:50.215Z,79.10
2017-09-02T08:46:17.704Z,79.10
2017-09-02T08:48:45.216Z,78.70
2017-09-02T08:51:12.716Z,78.00
2017-09-02T08:53:40.473Z,77.10
2017-09-02T08:56:07.983Z,76.40
2017-09-02T08:58:35.583Z,76.40
2017-09-02T09:01:03.153Z,76.00
2017-09-02T09:03:30.647Z,75.80
2017-09-02T09:05:58.156Z,75.60
2017-09-02T09:08:26.288Z,75.60
2017-09-02T09:10:54.149Z,73.50
2017-09-02T09:13:21.963Z,71.50
2017-09-02T09:15:49.492Z,72.80
2017-09-02T09:18:17.165Z,71.20
2017-09-02T09:20:44.881Z,72.40
2017-09-02T09:23:12.376Z,72.70
2017-09-02T09:25:40.276Z,71.90
2017-09-02T09:28:07.932Z,68.80
2017-09-02T09:30:35.432Z,69.00
2017-09-02T09:33:02.970Z,66.30
2017-09-02T09:35:30.656Z,65.50
2017-09-02T09:37:58.204Z,67.00
2017-09-02T09:40:25.828Z,66.50
2017-09-02T09:42:53.627Z,64.80
2017-09-02T09:45:21.382Z,62.70
2017-09-02T09:47:48.898Z,62.00
2017-09-02T09:50:16.580Z,61.70
2017-09-02T09:52:44.087Z,61.90
2017-09-02T09:55:12.079Z,60.00
2017-09-02T09:57:39.868Z,59.30
2017-09-02T10:00:07.390Z,60.80
2017-09-02T10:02:34.911Z,63.30
2017-09-02T10:05:02.543Z,64.20
2017-09-02T10:07:30.037Z,65.20
2017-09-02T10:09:57.542Z,66.20
2017-09-02T10:12:25.164Z,65.10
2017-09-02T10:14:52.686Z,63.70
2017-09-02T10:17:20.175Z,62.60
2017-09-02T10:19:47.687Z,60.60
2017-09-02T10:22:15.378Z,59.50
2017-09-02T10:24:42.888Z,60.20
2017-09-02T10:27:10.395Z,60.10
2017-09-02T10:29:38.031Z,58.80
2017-09-02T10:32:05.532Z,55.70
2017-09-02T10:34:33.247Z,52.00
2017-09-02T10:37:00.756Z,52.90
2017-09-02T10:39:28.248Z,48.80
2017-09-02T10:41:55.868Z,50.30
2017-09-02T10:44:23.383Z,52.40
2017-09-02T10:46:51.147Z,54.10
2017-09-02T10:49:18.913Z,55.00
2017-09-02T10:51:46.694Z,56.60
2017-09-02T10:54:15.372Z,56.60
2017-09-02T10:56:43.128Z,57.20
2017-09-02T10:59:10.627Z,57.40
2017-09-02T11:01:38.346Z,57.30
2017-09-02T11:04:05.851Z,56.20
2017-09-02T11:06:33.363Z,55.70
2017-09-02T11:09:00.859Z,55.30
2017-09-02T11:11:28.503Z,55.80
2017-09-02T11:13:56.240Z,56.50
2017-09-02T11:16:23.806Z,57.20
2017-09-02T11:18:52.087Z,54.40
2017-09-02T11:21:19.602Z,53.20
2017-09-02T11:23:47.123Z,50.00
2017-09-02T11:26:14.600Z,50.40
2017-09-02T11:28:42.207Z,49.00
2017-09-02T11:31:09.977Z,52.50
2017-09-02T11:33:37.471Z,55.30
2017-09-02T11:36:05.156Z,54.10
2017-09-02T11:38:32.660Z,54.50
2017-09-02T11:41:00.170Z,53.50
2017-09-02T11:43:27.677Z,51.00
2017-09-02T11:45:55.322Z,49.80
2017-09-02T11:48:22.844Z,48.80
2017-09-02T11:50:50.543Z,47.70
2017-09-02T11:53:18.423Z,49.30
2017-09-02T11:55:46.044Z,50.30
2017-09-02T11:58:13.839Z,51.10
2017-09-02T12:00:41.359Z,51.90
2017-09-02T12:03:08.847Z,51.00
2017-09-02T12:05:36.356Z,51.50
2017-09-02T12:08:04.888Z,52.90
2017-09-02T12:10:32.615Z,52.90
2017-09-02T12:13:00.124Z,52.00
2017-09-02T12:15:27.899Z,52.30
2017-09-02T12:17:55.399Z,51.10
2017-09-02T12:20:22.919Z,49.80
2017-09-02T12:22:50.699Z,48.70
2017-09-02T12:25:18.320Z,46.80
2017-09-02T12:27:46.103Z,45.50
2017-09-02T12:30:13.839Z,45.00
2017-09-02T12:32:41.551Z,47.20
2017-09-02T12:35:09.816Z,48.70
2017-09-02T12:37:37.466Z,48.80
2017-09-02T12:40:04.951Z,49.00
2017-09-02T12:42:32.712Z,49.10
2017-09-02T12:45:00.359Z,50.00
2017-09-02T12:47:27.906Z,50.00
2017-09-02T12:49:55.959Z,49.40
2017-09-02T12:52:23.461Z,49.30
2017-09-02T12:54:51.127Z,48.60
2017-09-02T12:57:18.655Z,49.70
2017-09-02T12:59:46.146Z,51.30
2017-09-02T13:02:13.659Z,51.60
2017-09-02T13:04:41.186Z,50.70
2017-09-02T13:07:08.760Z,49.80
2017-09-02T13:09:36.263Z,49.60
2017-09-02T13:12:03.775Z,49.30
2017-09-02T13:14:31.295Z,49.10
2017-09-02T13:16:58.892Z,49.20
2017-09-02T13:19:26.416Z,49.50
2017-09-02T13:21:54.371Z,47.30
2017-09-02T13:24:21.894Z,48.30
2017-09-02T13:26:49.397Z,48.50
2017-09-02T13:29:17.366Z,51.90
2017-09-02T13:31:45.169Z,50.60
2017-09-02T13:34:12.931Z,49.60
2017-09-02T13:36:40.452Z,46.50
2017-09-02T13:39:08.039Z,47.10
2017-09-02T13:41:35.608Z,47.60
2017-09-02T13:44:03.363Z,49.80
2017-09-02T13:46:30.967Z,46.80
2017-09-02T13:48:58.592Z,46.60
2017-09-02T13:51:26.355Z,47.60
2017-09-02T13:53:53.863Z,48.40
2017-09-02T13:56:21.576Z,49.50
2017-09-02T13:58:49.073Z,49.20
2017-09-02T14:01:16.795Z,49.50
2017-09-02T14:03:44.292Z,48.80
2017-09-02T14:06:11.796Z,47.40
2017-09-02T14:08:39.490Z,47.50
2017-09-02T14:11:07.014Z,47.60
2017-09-02T14:13:34.512Z,45.80
2017-09-02T14:16:02.141Z,46.40
2017-09-02T14:18:29.686Z,47.00
2017-09-02T14:20:57.188Z,46.00
2017-09-02T14:23:25.879Z,45.40
2017-09-02T14:25:53.511Z,43.60
2017-09-02T14:28:21.008Z,45.60
2017-09-02T14:30:48.508Z,43.20
2017-09-02T14:33:16.033Z,41.20
2017-09-02T14:35:43.643Z,43.30
2017-09-02T14:38:11.178Z,48.20
2017-09-02T14:40:38.830Z,47.20
2017-09-02T14:43:06.340Z,48.10
2017-09-02T14:45:33.858Z,50.60
2017-09-02T14:48:01.519Z,50.30
2017-09-02T14:50:29.185Z,50.40
2017-09-02T14:52:56.667Z,51.00
2017-09-02T14:55:24.215Z,50.60
2017-09-02T14:57:51.979Z,49.70
2017-09-02T15:00:19.758Z,50.90
2017-09-02T15:02:47.264Z,50.20
2017-09-02T15:05:14.985Z,50.40
2017-09-02T15:07:42.507Z,50.50
2017-09-02T15:10:10.029Z,50.90
2017-09-02T15:12:37.640Z,52.20
2017-09-02T15:15:05.424Z,53.30
2017-09-02T15:17:33.002Z,53.50
2017-09-02T15:20:00.891Z,53.30
2017-09-02T15:22:28.691Z,54.70
2017-09-02T15:24:56.459Z,52.90
2017-09-02T15:27:23.971Z,54.30
2017-09-02T15:29:51.704Z,53.90
2017-09-02T15:32:19.291Z,53.30
2017-09-02T15:34:46.900Z,50.90
2017-09-02T15:37:14.613Z,51.40
2017-09-02T15:39:42.447Z,52.00
2017-09-02T15:42:09.948Z,52.40
2017-09-02T15:44:37.456Z,52.20
2017-09-02T15:47:04.976Z,52.60
2017-09-02T15:49:32.481Z,51.60
2017-09-02T15:52:00.016Z,49.70
2017-09-02T15:54:27.542Z,49.80
2017-09-02T15:56:55.067Z,50.00
2017-09-02T15:59:22.671Z,50.90
2017-09-02T16:01:50.163Z,51.30
2017-09-02T16:04:17.702Z,48.70
2017-09-02T16:06:45.370Z,48.10
2017-09-02T16:09:12.869Z,49.80
2017-09-02T16:11:40.587Z,49.30
2017-09-02T16:14:08.855Z,50.50
2017-09-02T16:16:36.375Z,50.50
2017-09-02T16:19:03.886Z,52.00
2017-09-02T16:21:31.659Z,53.10
2017-09-02T16:23:59.611Z,54.60
2017-09-02T16:26:27.136Z,54.70
2017-09-02T16:28:54.635Z,55.10
2017-09-02T16:31:22.403Z,56.00
2017-09-02T16:33:50.771Z,57.10
2017-09-02T16:36:18.379Z,57.10
2017-09-02T16:38:45.967Z,57.50
2017-09-02T16:41:13.456Z,58.80
2017-09-02T16:43:40.961Z,59.50
2017-09-02T16:46:08.674Z,59.00
2017-09-02T16:48:36.180Z,58.60
2017-09-02T16:51:03.707Z,59.40
2017-09-02T16:53:31.220Z,59.80
2017-09-02T16:55:58.752Z,60.00
2017-09-02T16:58:26.260Z,59.50
2017-09-02T17:00:53.751Z,60.20
2017-09-02T17:03:21.259Z,61.40
2017-09-02T17:05:48.767Z,61.70
2017-09-02T17:08:16.383Z,62.00
2017-09-02T17:10:43.898Z,62.10
2017-09-02T17:13:11.599Z,62.80
2017-09-02T17:15:39.096Z,62.70
2017-09-02T17:18:06.612Z,63.20
2017-09-02T17:20:34.112Z,62.90
2017-09-02T17:23:01.728Z,62.20
2017-09-02T17:25:29.251Z,62.40
2017-09-02T17:27:56.942Z,60.60
2017-09-02T17:30:24.449Z,62.40
2017-09-02T17:32:52.188Z,61.50
2017-09-02T17:35:19.710Z,61.70
2017-09-02T17:37:47.424Z,62.20
2017-09-02T17:40:14.950Z,63.60
2017-09-02T17:42:42.587Z,63.40
2017-09-02T17:45:10.387Z,64.00
2017-09-02T17:47:37.905Z,64.10
2017-09-02T17:50:05.419Z,63.80
2017-09-02T17:52:33.027Z,64.20
2017-09-02T17:55:00.531Z,63.50
2017-09-02T17:57:28.053Z,63.50
2017-09-02T17:59:55.551Z,62.70
2017-09-02T18:02:23.056Z,64.00
2017-09-02T18:04:50.616Z,65.70
2017-09-02T18:07:18.128Z,64.00
2017-09-02T18:09:45.651Z,64.30
2017-09-02T18:12:13.224Z,65.30
2017-09-02T18:14:40.819Z,65.80
2017-09-02T18:17:08.339Z,66.10
2017-09-02T18:19:36.231Z,67.00
2017-09-02T18:22:03.748Z,66.90
2017-09-02T18:24:32.052Z,67.80
2017-09-02T18:26:59.560Z,67.50
2017-09-02T18:29:27.983Z,67.90
2017-09-02T18:31:55.524Z,68.70
2017-09-02T18:34:23.028Z,68.80
2017-09-02T18:36:51.109Z,69.20
2017-09-02T18:39:18.608Z,69.00
2017-09-02T18:41:46.213Z,69.70
2017-09-02T18:44:13.717Z,69.20
2017-09-02T18:46:41.235Z,69.40
2017-09-02T18:49:08.739Z,69.60
2017-09-02T18:51:36.247Z,70.50
2017-09-02T18:54:03.779Z,69.90
2017-09-02T18:56:31.287Z,70.40
2017-09-02T18:58:58.796Z,71.20
2017-09-02T19:01:26.439Z,71.20
2017-09-02T19:03:53.974Z,71.10
2017-09-02T19:06:21.679Z,71.30
2017-09-02T19:08:49.204Z,71.20
2017-09-02T19:11:16.859Z,71.50
2017-09-02T19:13:44.363Z,71.70
2017-09-02T19:16:11.859Z,71.70
2017-09-02T19:18:39.591Z,71.60
2017-09-02T19:21:07.095Z,71.90
2017-09-02T19:23:34.617Z,72.00
2017-09-02T19:26:02.608Z,72.30
2017-09-02T19:28:30.096Z,72.50
2017-09-02T19:30:57.612Z,72.90
2017-09-02T19:33:25.115Z,73.10
2017-09-02T19:35:53.822Z,73.30
2017-09-02T19:38:21.437Z,73.50
2017-09-02T19:40:49.068Z,73.50
2017-09-02T19:43:16.592Z,73.70
2017-09-02T19:45:44.108Z,73.90
2017-09-02T19:48:11.785Z,74.00
2017-09-02T19:50:40.067Z,75.20
2017-09-02T19:53:08.834Z,74.40
2017-09-02T19:55:36.372Z,74.20
2017-09-02T19:58:04.114Z,74.70
2017-09-02T20:00:31.759Z,75.00
2017-09-02T20:02:59.296Z,75.20
2017-09-02T20:05:27.079Z,75.30
2017-09-02T20:07:54.839Z,75.40
2017-09-02T20:10:22.346Z,75.20
2017-09-02T20:12:50.060Z,75.30
2017-09-02T20:15:17.842Z,75.40
2017-09-02T20:17:45.603Z,75.50
2017-09-02T20:20:13.104Z,75.70
2017-09-02T20:22:40.644Z,75.70
2017-09-02T20:25:08.263Z,76.30
2017-09-02T20:27:36.027Z,76.20
2017-09-02T20:30:03.792Z,76.30
2017-09-02T20:32:31.322Z,76.60
2017-09-02T20:34:59.041Z,76.60
2017-09-02T20:37:27.447Z,76.70
2017-09-02T20:39:54.952Z,77.00
2017-09-02T20:42:22.612Z,76.90
2017-09-02T20:44:50.119Z,77.10
2017-09-02T20:47:17.836Z,77.30
2017-09-02T20:49:45.343Z,77.50
2017-09-02T20:52:12.848Z,77.50
2017-09-02T20:54:40.486Z,77.50
2017-09-02T20:57:08.008Z,77.60
2017-09-02T20:59:35.735Z,77.70
2017-09-02T21:02:03.234Z,77.90
2017-09-02T21:04:30.758Z,78.10
2017-09-02T21:06:58.278Z,78.40
2017-09-02T21:09:25.867Z,78.30
2017-09-02T21:11:53.623Z,78.20
2017-09-02T21:14:21.118Z,78.40
2017-09-02T21:16:48.641Z,78.40
2017-09-02T21:19:16.259Z,78.50
2017-09-02T21:21:43.787Z,78.60
2017-09-02T21:24:11.519Z,78.60
2017-09-02T21:26:39.305Z,78.70
2017-09-02T21:29:06.812Z,78.70
2017-09-02T21:31:34.514Z,78.70
2017-09-02T21:34:02.269Z,78.80
2017-09-02T21:36:30.051Z,78.70
2017-09-02T21:38:57.815Z,78.80
2017-09-02T21:41:25.359Z,79.10
2017-09-02T21:43:53.920Z,79.20
2017-09-02T21:46:21.700Z,79.10
2017-09-02T21:48:49.216Z,79.00
2017-09-02T21:51:17.211Z,79.10
2017-09-02T21:53:45.303Z,79.10
2017-09-02T21:56:13.088Z,79.10
2017-09-02T21:58:40.824Z,79.30
2017-09-02T22:01:08.364Z,79.70
2017-09-02T22:03:36.044Z,79.80
2017-09-02T22:06:03.807Z,79.60
2017-09-02T22:08:31.352Z,79.70
2017-09-02T22:10:59.005Z,79.40
2017-09-02T22:13:26.531Z,79.40
2017-09-02T22:15:54.239Z,79.40
2017-09-02T22:18:21.763Z,79.00
2017-09-02T22:20:49.329Z,79.80
2017-09-02T22:23:16.839Z,79.40
2017-09-02T22:25:44.401Z,79.40
2017-09-02T22:28:11.927Z,79.30
2017-09-02T22:30:39.441Z,79.40
2017-09-02T22:33:06.940Z,79.70
2017-09-02T22:35:34.445Z,79.50
2017-09-02T22:38:01.979Z,79.80
2017-09-02T22:40:29.528Z,80.10
2017-09-02T22:42:57.136Z,80.10
2017-09-02T22:45:24.671Z,79.50
2017-09-02T22:47:52.191Z,80.00
2017-09-02T22:50:20.053Z,79.90
2017-09-02T22:52:48.415Z,80.40
2017-09-02T22:55:16.719Z,80.40
2017-09-02T22:57:44.470Z,80.30
2017-09-02T23:00:12.020Z,80.60
2017-09-02T23:02:39.522Z,80.60
2017-09-02T23:05:07.019Z,80.60
2017-09-02T23:07:34.528Z,80.60
2017-09-02T23:10:02.066Z,80.50
2017-09-02T23:12:29.603Z,80.50
2017-09-02T23:14:57.095Z,80.60
2017-09-02T23:17:24.884Z,80.30
2017-09-02T23:19:52.404Z,80.60
2017-09-02T23:22:19.958Z,80.50
2017-09-02T23:24:47.558Z,80.80
2017-09-02T23:27:15.063Z,80.80
2017-09-02T23:29:42.563Z,80.90
2017-09-02T23:32:10.089Z,80.90
2017-09-02T23:34:37.853Z,80.80
2017-09-02T23:37:05.436Z,81.00
2017-09-02T23:39:32.931Z,80.70
2017-09-02T23:42:00.452Z,80.70
2017-09-02T23:44:28.911Z,80.70
2017-09-02T23:46:56.417Z,80.80
2017-09-02T23:49:24.131Z,80.60
2017-09-02T23:51:52.408Z,80.90
2017-09-02T23:54:20.111Z,81.10
2017-09-02T23:56:47.605Z,81.20
2017-09-02T23:59:15.284Z,81.20
